Terminal Aerodrome Forecast
Issued by NWS Tuscon, AZ

Home | Current Version | Previous Version | Text Only | Print | Product List | Glossary On
Versions: 1 2 3 4 5 6 7 8 9 10 11 12 13
000
FTUS45 KTWC 242335
TAFDUG
TAF
KDUG 242335Z 2500/2524 24014G22KT P6SM SCT080 SCT120
     FM250200 26011KT P6SM SCT100
     FM250800 13009KT P6SM FEW080 SCT150
     FM252000 25011G18KT P6SM SCT200=

USA.gov is the U.S. government's official web portal to all federal, state and local government web resources and services.